Time;durP1;ratioP1;P1;durP2;ratioP2;P2;SDS_P1;SDS_P2;PMS_P1;PMS_P2;Temp;Humidity;BMP_temperature;BMP_pressure;BME280_temperature;BME280_humidity;BME280_pressure;Samples;Min_cycle;Max_cycle;Signal;HPM_P1;HPM_P2
2024/01/27 00:01:59;;;;;;;19.37;10.23;;;5.50;83.00;;;;;;4990127;28;20227;-76
2024/01/27 00:04:29;;;;;;;13.87;8.53;;;5.50;79.60;;;;;;5004658;28;20226;-77
2024/01/27 00:06:58;;;;;;;14.63;8.40;;;5.60;77.30;;;;;;4961559;28;20284;-76
2024/01/27 00:09:27;;;;;;;12.37;6.87;;;5.60;74.80;;;;;;4979160;28;20223;-76
2024/01/27 00:11:56;;;;;;;14.87;6.40;;;5.60;83.50;;;;;;4982063;28;20226;-77
2024/01/27 00:14:24;;;;;;;9.90;5.60;;;5.70;71.20;;;;;;4966005;28;20227;-77
2024/01/27 00:16:53;;;;;;;9.37;4.03;;;5.70;69.20;;;;;;4995564;28;20226;-78
2024/01/27 00:19:22;;;;;;;8.90;3.63;;;5.70;65.80;;;;;;4981506;28;20289;-76
2024/01/27 00:21:52;;;;;;;7.30;2.60;;;5.60;63.00;;;;;;4996195;28;20280;-77
2024/01/27 00:24:20;;;;;;;8.63;2.40;;;5.70;63.50;;;;;;4966944;28;20223;-76
2024/01/27 00:26:49;;;;;;;8.43;2.60;;;5.70;61.50;;;;;;4977383;28;20227;-76
2024/01/27 00:29:17;;;;;;;5.17;1.83;;;5.60;61.10;;;;;;4983069;28;20788;-76
2024/01/27 00:31:46;;;;;;;6.00;2.00;;;5.60;59.50;;;;;;4964618;28;20257;-76
2024/01/27 00:34:15;;;;;;;8.73;2.50;;;5.70;60.50;;;;;;4977113;28;20242;-76
2024/01/27 00:36:48;;;;;;;7.63;2.23;;;5.60;60.30;;;;;;4962652;28;20234;-76
2024/01/27 00:39:19;;;;;;;8.63;1.87;;;5.60;61.30;;;;;;4979066;28;20234;-75
2024/01/27 00:41:47;;;;;;;7.67;1.83;;;5.60;60.70;;;;;;4961083;28;20226;-76
2024/01/27 00:44:18;;;;;;;10.17;2.00;;;5.60;61.80;;;;;;4976486;28;20224;-76
2024/01/27 00:46:47;;;;;;;9.00;2.07;;;5.60;61.50;;;;;;4978277;28;20238;-75
2024/01/27 00:49:16;;;;;;;5.47;1.70;;;5.70;58.30;;;;;;4961445;28;20229;-79
2024/01/27 00:51:44;;;;;;;7.93;2.17;;;5.60;58.60;;;;;;4977379;28;20302;-76
2024/01/27 00:54:13;;;;;;;9.60;2.30;;;5.60;58.70;;;;;;4993545;28;20792;-76
2024/01/27 00:56:43;;;;;;;11.33;2.27;;;5.60;59.40;;;;;;4978404;28;20228;-76
2024/01/27 00:59:11;;;;;;;14.07;1.70;;;5.50;58.50;;;;;;4977448;28;20231;-77
2024/01/27 01:01:40;;;;;;;9.67;1.83;;;5.60;59.60;;;;;;4977947;28;20774;-75
2024/01/27 01:04:08;;;;;;;9.30;1.90;;;5.60;58.70;;;;;;4978119;28;20229;-76
2024/01/27 01:06:40;;;;;;;10.27;2.10;;;5.60;58.70;;;;;;4965523;28;20243;-75
2024/01/27 01:09:08;;;;;;;9.13;2.10;;;5.60;59.50;;;;;;4980508;28;20227;-76
2024/01/27 01:11:37;;;;;;;9.00;1.83;;;5.60;59.70;;;;;;4982220;28;20253;-76
2024/01/27 01:14:09;;;;;;;12.97;2.07;;;5.60;58.70;;;;;;4965375;28;20227;-77
2024/01/27 01:16:37;;;;;;;9.33;2.00;;;5.70;58.20;;;;;;4963958;28;20301;-77
2024/01/27 01:19:06;;;;;;;12.17;2.47;;;5.60;57.30;;;;;;4983164;28;20234;-78
2024/01/27 01:21:35;;;;;;;11.33;1.80;;;5.60;69.60;;;;;;4982516;28;20311;-77
2024/01/27 01:24:04;;;;;;;8.73;1.43;;;5.50;57.80;;;;;;4983532;28;20230;-77
2024/01/27 01:26:33;;;;;;;8.23;1.57;;;5.60;57.30;;;;;;4984176;28;20227;-78
2024/01/27 01:29:01;;;;;;;11.50;2.03;;;5.60;56.30;;;;;;4982301;28;20318;-77
2024/01/27 01:31:31;;;;;;;13.77;2.07;;;5.60;55.20;;;;;;4980364;28;20227;-78
2024/01/27 01:34:00;;;;;;;10.70;2.43;;;5.70;54.40;;;;;;4976548;28;20250;-78
2024/01/27 01:36:29;;;;;;;11.43;2.43;;;5.70;53.50;;;;;;4978100;28;20224;-78
2024/01/27 01:38:57;;;;;;;7.10;1.90;;;5.80;54.10;;;;;;4965478;28;20240;-78
2024/01/27 01:41:26;;;;;;;10.53;2.17;;;5.60;53.90;;;;;;4939814;28;20233;-77
2024/01/27 01:43:54;;;;;;;10.47;2.33;;;5.70;53.70;;;;;;4947440;28;20259;-77
2024/01/27 01:46:24;;;;;;;10.10;2.27;;;5.60;53.40;;;;;;4945251;28;20293;-78
2024/01/27 01:48:55;;;;;;;7.47;1.70;;;5.70;53.50;;;;;;4933789;28;20476;-78
2024/01/27 01:51:24;;;;;;;11.53;2.00;;;5.60;52.90;;;;;;4963354;28;20220;-77
2024/01/27 01:53:55;;;;;;;11.37;2.03;;;5.70;53.60;;;;;;4962387;28;20235;-78
2024/01/27 01:56:24;;;;;;;10.03;2.20;;;5.60;53.80;;;;;;4964287;28;20283;-77
2024/01/27 01:58:55;;;;;;;13.03;2.43;;;5.60;64.10;;;;;;4944374;28;20227;-78
2024/01/27 02:01:24;;;;;;;10.00;2.13;;;5.60;53.30;;;;;;4939731;28;21567;-77
2024/01/27 02:03:55;;;;;;;9.20;2.20;;;5.60;53.20;;;;;;4938432;28;20234;-77
2024/01/27 02:06:22;;;;;;;14.80;2.67;;;5.70;53.80;;;;;;4941201;28;20231;-77
2024/01/27 02:08:51;;;;;;;12.93;2.90;;;5.60;53.80;;;;;;4965626;28;20468;-77
2024/01/27 02:11:20;;;;;;;9.73;2.20;;;5.70;53.70;;;;;;4946726;28;20236;-76
2024/01/27 02:13:48;;;;;;;12.20;3.07;;;5.60;54.00;;;;;;4923522;28;20251;-76
2024/01/27 02:16:18;;;;;;;9.67;2.23;;;5.70;54.20;;;;;;4964690;28;20247;-77
2024/01/27 02:18:47;;;;;;;11.37;2.50;;;5.70;54.70;;;;;;4947678;28;20288;-78
2024/01/27 02:21:17;;;;;;;11.83;2.93;;;5.60;54.00;;;;;;4948881;28;20230;-77
2024/01/27 02:23:45;;;;;;;9.20;2.53;;;5.70;53.40;;;;;;4960637;28;20242;-78
2024/01/27 02:26:15;;;;;;;17.10;2.77;;;5.70;53.30;;;;;;4948114;28;20543;-78
2024/01/27 02:28:44;;;;;;;16.57;2.67;;;5.60;54.50;;;;;;4946186;28;20224;-77
2024/01/27 02:31:13;;;;;;;12.73;2.60;;;5.70;54.40;;;;;;4952508;28;20231;-77
2024/01/27 02:33:42;;;;;;;17.10;2.70;;;5.70;53.80;;;;;;4949843;28;20229;-76
2024/01/27 02:36:10;;;;;;;15.10;2.43;;;5.60;53.30;;;;;;4951142;28;20228;-77
2024/01/27 02:38:40;;;;;;;11.70;2.33;;;5.50;53.60;;;;;;4976767;28;20223;-76
2024/01/27 02:41:10;;;;;;;15.43;2.43;;;5.60;53.80;;;;;;4980264;28;20308;-75
2024/01/27 02:43:40;;;;;;;17.57;2.63;;;5.60;53.40;;;;;;4977670;28;20918;-76
2024/01/27 02:46:12;;;;;;;10.60;2.53;;;5.60;52.20;;;;;;4961636;28;20227;-76
2024/01/27 02:48:42;;;;;;;11.37;2.53;;;5.60;53.00;;;;;;4961907;28;20868;-76
2024/01/27 02:51:10;;;;;;;10.20;2.10;;;5.70;53.10;;;;;;4979084;28;20233;-77
2024/01/27 02:53:39;;;;;;;17.20;2.70;;;5.70;52.70;;;;;;4981860;28;20397;-75
2024/01/27 02:56:08;;;;;;;14.33;3.03;;;5.70;51.70;;;;;;4979036;28;20652;-76
2024/01/27 02:58:37;;;;;;;15.53;2.93;;;5.60;52.30;;;;;;4978972;28;20990;-75
2024/01/27 03:01:07;;;;;;;16.33;2.70;;;5.70;51.90;;;;;;4980504;28;20242;-75
2024/01/27 03:03:36;;;;;;;11.53;2.40;;;5.70;52.70;;;;;;4978805;28;20227;-75
2024/01/27 03:06:05;;;;;;;18.67;3.00;;;5.70;52.50;;;;;;4999156;28;20219;-76
2024/01/27 03:08:33;;;;;;;14.00;2.20;;;5.60;52.40;;;;;;4987742;28;20250;-76
2024/01/27 03:11:03;;;;;;;16.67;2.77;;;5.70;51.70;;;;;;4985143;28;20240;-77
2024/01/27 03:13:31;;;;;;;11.77;2.60;;;5.70;51.90;;;;;;4996455;28;20218;-76
2024/01/27 03:16:00;;;;;;;11.47;2.40;;;5.70;53.20;;;;;;5002595;28;20231;-77
2024/01/27 03:18:29;;;;;;;12.77;2.60;;;5.70;53.00;;;;;;4986706;28;20310;-77
2024/01/27 03:20:58;;;;;;;14.17;2.53;;;5.70;52.50;;;;;;4986296;28;20310;-77
2024/01/27 03:23:27;;;;;;;11.07;3.10;;;5.70;52.50;;;;;;4966754;28;20227;-77
2024/01/27 03:25:55;;;;;;;15.43;2.93;;;5.70;52.10;;;;;;4986896;28;20226;-76
2024/01/27 03:28:24;;;;;;;15.50;2.60;;;5.70;52.60;;;;;;4984052;28;20239;-76
2024/01/27 03:30:52;;;;;;;19.13;3.47;;;5.70;56.50;;;;;;4977276;28;20347;-77
2024/01/27 03:33:22;;;;;;;10.50;3.07;;;5.80;52.40;;;;;;4978021;28;20223;-77
2024/01/27 03:35:52;;;;;;;18.70;3.13;;;5.70;51.80;;;;;;4979468;28;21198;-77
2024/01/27 03:38:21;;;;;;;16.70;3.10;;;5.70;52.20;;;;;;4981898;28;20662;-76
2024/01/27 03:40:49;;;;;;;14.23;3.20;;;5.70;51.70;;;;;;4993867;28;20223;-77
2024/01/27 03:43:18;;;;;;;13.33;2.97;;;5.50;51.70;;;;;;4978855;28;20218;-76
2024/01/27 03:45:46;;;;;;;21.57;3.83;;;5.60;52.20;;;;;;4995766;28;20310;-76
2024/01/27 03:48:15;;;;;;;18.90;3.53;;;5.70;52.90;;;;;;4981349;28;20230;-76
2024/01/27 03:50:44;;;;;;;15.37;3.00;;;5.60;51.90;;;;;;4996094;28;20282;-77
2024/01/27 03:53:14;;;;;;;15.17;3.07;;;5.70;51.50;;;;;;4981720;28;20237;-77
2024/01/27 03:55:43;;;;;;;16.07;3.17;;;5.60;51.90;;;;;;4978648;28;20224;-75
2024/01/27 03:58:11;;;;;;;18.03;3.27;;;5.70;51.20;;;;;;4994066;28;20687;-75
2024/01/27 04:00:40;;;;;;;16.37;3.03;;;5.70;51.80;;;;;;4975622;28;20779;-74
2024/01/27 04:03:13;;;;;;;13.80;3.07;;;5.60;51.60;;;;;;4980534;28;20278;-75
2024/01/27 04:05:41;;;;;;;17.20;3.47;;;5.60;51.50;;;;;;4979534;28;20757;-75
2024/01/27 04:08:10;;;;;;;11.57;3.30;;;5.70;52.20;;;;;;4979257;28;20278;-75
2024/01/27 04:10:40;;;;;;;19.03;3.30;;;5.60;52.40;;;;;;4979586;28;20230;-75
2024/01/27 04:13:08;;;;;;;19.10;3.00;;;5.60;51.90;;;;;;4957673;28;20821;-76
2024/01/27 04:15:38;;;;;;;15.00;3.40;;;5.60;51.90;;;;;;4995139;28;20252;-76
2024/01/27 04:18:11;;;;;;;14.93;3.20;;;5.60;52.40;;;;;;4997337;28;20223;-75
2024/01/27 04:20:39;;;;;;;15.77;3.20;;;5.60;52.50;;;;;;4977327;28;20250;-75
2024/01/27 04:23:08;;;;;;;14.00;3.00;;;5.50;63.70;;;;;;4977455;28;20305;-75
2024/01/27 04:25:38;;;;;;;14.73;3.20;;;5.70;51.90;;;;;;4994447;28;20223;-76
2024/01/27 04:28:10;;;;;;;18.07;2.90;;;5.60;51.90;;;;;;4976346;28;20222;-76
2024/01/27 04:30:39;;;;;;;13.00;2.63;;;5.60;53.40;;;;;;4965109;28;20714;-77
2024/01/27 04:33:08;;;;;;;19.07;3.30;;;5.60;51.20;;;;;;4980288;28;20226;-77
2024/01/27 04:35:37;;;;;;;13.47;2.90;;;5.60;52.90;;;;;;4980780;28;20221;-76
2024/01/27 04:38:05;;;;;;;21.10;4.10;;;5.60;58.20;;;;;;4966662;28;20310;-75
2024/01/27 04:40:35;;;;;;;19.33;5.27;;;5.60;51.60;;;;;;4949212;28;20285;-76
2024/01/27 04:43:03;;;;;;;17.07;3.67;;;5.70;51.50;;;;;;4960844;28;20303;-76
2024/01/27 04:45:33;;;;;;;14.63;3.17;;;5.70;51.70;;;;;;4946967;28;20227;-75
2024/01/27 04:48:02;;;;;;;16.20;3.60;;;5.80;51.00;;;;;;4919311;28;22594;-76
2024/01/27 04:50:31;;;;;;;12.67;3.63;;;5.70;50.40;;;;;;4960709;28;20325;-76
2024/01/27 04:52:59;;;;;;;19.50;3.57;;;5.70;50.90;;;;;;4948476;28;20226;-77
2024/01/27 04:55:28;;;;;;;17.47;3.97;;;5.80;50.50;;;;;;4944476;28;20686;-76
2024/01/27 04:57:58;;;;;;;13.73;3.50;;;5.70;51.20;;;;;;4953549;28;21163;-77
2024/01/27 05:00:28;;;;;;;16.33;3.60;;;5.70;50.80;;;;;;4966200;28;20237;-76
2024/01/27 05:03:03;;;;;;;13.67;3.30;;;5.70;51.00;;;;;;4961794;28;20313;-75
2024/01/27 05:05:31;;;;;;;16.97;3.13;;;5.60;52.20;;;;;;4932526;28;20233;-76
2024/01/27 05:08:04;;;;;;;16.37;4.03;;;5.40;52.10;;;;;;4963124;28;20236;-76
2024/01/27 05:10:33;;;;;;;13.30;3.57;;;5.50;52.30;;;;;;4944522;28;20223;-76
2024/01/27 05:13:01;;;;;;;15.77;3.40;;;5.60;52.50;;;;;;4957408;28;20230;-76
2024/01/27 05:15:30;;;;;;;19.07;3.60;;;5.60;52.80;;;;;;4963170;28;20248;-76
2024/01/27 05:17:59;;;;;;;15.20;3.53;;;5.50;53.80;;;;;;4944611;28;20239;-75
2024/01/27 05:20:28;;;;;;;14.93;4.13;;;5.60;52.80;;;;;;4932537;28;20346;-76
2024/01/27 05:22:57;;;;;;;15.60;3.70;;;5.60;52.40;;;;;;4956880;28;20319;-76
2024/01/27 05:25:25;;;;;;;12.07;2.93;;;5.50;53.50;;;;;;4930072;28;20227;-80
2024/01/27 05:27:54;;;;;;;19.10;3.60;;;5.60;51.60;;;;;;4948521;28;20229;-80
2024/01/27 05:30:22;;;;;;;14.17;3.10;;;5.60;52.70;;;;;;4968816;28;20212;-80
2024/01/27 05:32:51;;;;;;;14.90;3.40;;;5.50;51.50;;;;;;4944702;28;20226;-81
2024/01/27 05:35:21;;;;;;;21.43;3.30;;;5.50;52.30;;;;;;4964855;28;20234;-80
2024/01/27 05:37:51;;;;;;;14.23;3.40;;;5.50;52.30;;;;;;4955542;28;20223;-81
2024/01/27 05:40:19;;;;;;;16.20;3.27;;;5.50;51.80;;;;;;4986591;28;20226;-80
2024/01/27 05:42:49;;;;;;;18.60;3.50;;;5.50;52.60;;;;;;4982973;28;20231;-79
2024/01/27 05:45:18;;;;;;;17.37;3.70;;;5.50;54.40;;;;;;4978869;28;20227;-79
2024/01/27 05:47:46;;;;;;;24.63;3.73;;;5.50;53.30;;;;;;4981685;28;20241;-79
2024/01/27 05:50:15;;;;;;;16.13;3.83;;;5.40;53.50;;;;;;4983414;28;20237;-79
2024/01/27 05:52:45;;;;;;;15.17;3.20;;;5.50;54.30;;;;;;4979059;28;20221;-79
2024/01/27 05:55:13;;;;;;;21.37;3.77;;;5.40;53.60;;;;;;4976522;28;20237;-80
2024/01/27 05:57:42;;;;;;;18.17;4.17;;;5.50;52.90;;;;;;4957233;28;20222;-79
2024/01/27 06:00:12;;;;;;;19.97;3.27;;;5.50;52.40;;;;;;4981098;28;20236;-80
2024/01/27 06:02:41;;;;;;;14.77;2.93;;;5.50;53.30;;;;;;4975688;28;20281;-79
2024/01/27 06:05:10;;;;;;;14.63;3.37;;;5.50;62.50;;;;;;4962956;28;20220;-79
2024/01/27 06:07:39;;;;;;;19.57;4.30;;;5.50;52.00;;;;;;4959815;28;20230;-78
2024/01/27 06:10:10;;;;;;;17.00;3.77;;;5.50;52.00;;;;;;4961030;28;20260;-78
2024/01/27 06:12:39;;;;;;;16.53;3.40;;;5.60;51.40;;;;;;4974356;28;20226;-79
2024/01/27 06:15:10;;;;;;;19.47;3.80;;;5.60;51.30;;;;;;4976637;28;20726;-79
2024/01/27 06:17:39;;;;;;;15.60;3.70;;;5.60;51.00;;;;;;4994108;28;20219;-79
2024/01/27 06:20:09;;;;;;;15.07;4.20;;;5.60;51.10;;;;;;4993944;28;20790;-78
2024/01/27 06:22:38;;;;;;;23.03;3.70;;;5.60;51.60;;;;;;4978035;28;20238;-79
2024/01/27 06:25:08;;;;;;;15.50;3.37;;;5.60;51.70;;;;;;4993478;28;20246;-79
2024/01/27 06:27:38;;;;;;;12.60;2.87;;;5.60;61.50;;;;;;4977987;28;20227;-80
2024/01/27 06:30:09;;;;;;;19.33;4.07;;;5.50;51.00;;;;;;4976681;28;20230;-80
2024/01/27 06:32:38;;;;;;;12.47;3.20;;;5.50;51.10;;;;;;4993933;28;20225;-80
2024/01/27 06:35:07;;;;;;;19.30;4.03;;;5.40;52.80;;;;;;4976664;28;20322;-85
2024/01/27 06:37:36;;;;;;;21.43;4.30;;;5.40;53.00;;;;;;4977482;28;20238;-78
2024/01/27 06:40:05;;;;;;;15.50;3.10;;;5.30;53.10;;;;;;4977453;28;20230;-80
2024/01/27 06:42:34;;;;;;;14.80;3.37;;;5.40;53.30;;;;;;4977174;28;20224;-80
2024/01/27 06:45:04;;;;;;;20.17;3.57;;;5.20;54.30;;;;;;4992375;28;20231;-80
2024/01/27 06:47:33;;;;;;;20.33;3.57;;;5.30;54.60;;;;;;4967954;28;20227;-81
2024/01/27 06:50:02;;;;;;;17.87;4.13;;;5.30;54.50;;;;;;4961453;28;20223;-79
2024/01/27 06:52:31;;;;;;;17.17;4.00;;;5.10;55.90;;;;;;4980167;28;20219;-79
2024/01/27 06:55:00;;;;;;;20.73;4.07;;;5.10;56.00;;;;;;4961481;28;20662;-79
2024/01/27 06:57:29;;;;;;;25.23;4.57;;;5.00;56.40;;;;;;4978813;28;20218;-81
2024/01/27 06:59:57;;;;;;;16.00;3.47;;;5.00;57.40;;;;;;4965357;28;20590;-79
2024/01/27 07:02:28;;;;;;;17.37;3.50;;;5.00;57.50;;;;;;4977301;28;20235;-80
2024/01/27 07:04:57;;;;;;;16.93;3.80;;;5.00;59.10;;;;;;4979723;28;20230;-74
2024/01/27 07:07:28;;;;;;;17.37;4.40;;;4.90;57.50;;;;;;4981856;28;20231;-74
2024/01/27 07:09:57;;;;;;;14.23;3.83;;;5.00;57.80;;;;;;4966250;28;20231;-74
2024/01/27 07:12:26;;;;;;;18.63;4.20;;;5.00;57.40;;;;;;4958734;28;20223;-75
2024/01/27 07:14:55;;;;;;;17.13;3.93;;;5.00;57.20;;;;;;4979023;28;20227;-74
2024/01/27 07:17:26;;;;;;;42.43;21.63;;;5.10;56.60;;;;;;4977363;28;20223;-73
2024/01/27 07:19:55;;;;;;;23.07;5.10;;;5.10;57.00;;;;;;4986705;28;20223;-73
2024/01/27 07:22:24;;;;;;;16.67;4.30;;;5.00;58.40;;;;;;4985895;28;20307;-74
2024/01/27 07:24:53;;;;;;;19.17;4.67;;;4.90;57.90;;;;;;4985122;28;20671;-74
2024/01/27 07:27:23;;;;;;;15.33;4.40;;;5.00;57.70;;;;;;4987600;28;20226;-75
2024/01/27 07:29:52;;;;;;;15.03;3.93;;;5.00;57.50;;;;;;4979335;28;20711;-75
2024/01/27 07:32:22;;;;;;;22.97;6.00;;;5.10;57.30;;;;;;4980749;28;20315;-74
2024/01/27 07:34:52;;;;;;;16.50;4.50;;;5.10;57.40;;;;;;4996443;28;20938;-74
2024/01/27 07:37:21;;;;;;;18.47;4.83;;;5.10;56.70;;;;;;4967234;28;20231;-73
2024/01/27 07:39:50;;;;;;;15.27;3.90;;;5.10;57.30;;;;;;4995877;28;20227;-74
2024/01/27 07:42:18;;;;;;;18.03;3.83;;;5.10;56.50;;;;;;4979477;28;20240;-74
2024/01/27 07:44:49;;;;;;;16.73;4.30;;;4.90;55.90;;;;;;4976977;28;20632;-75
2024/01/27 07:47:18;;;;;;;15.10;4.00;;;4.90;57.10;;;;;;4995645;28;20238;-75
2024/01/27 07:49:48;;;;;;;12.83;3.90;;;5.00;56.70;;;;;;4978201;28;20282;-74
2024/01/27 07:52:19;;;;;;;14.50;4.10;;;4.90;57.30;;;;;;4981461;28;20230;-74
2024/01/27 07:54:48;;;;;;;14.83;4.10;;;5.00;57.20;;;;;;4977937;28;20254;-74
2024/01/27 07:57:16;;;;;;;12.47;4.13;;;5.10;56.40;;;;;;4962421;28;20733;-73
2024/01/27 07:59:45;;;;;;;15.53;4.63;;;4.90;56.70;;;;;;4962097;28;20215;-74
2024/01/27 08:02:14;;;;;;;16.77;4.27;;;5.00;57.80;;;;;;4978541;28;20237;-74
2024/01/27 08:04:42;;;;;;;21.50;6.37;;;4.90;56.30;;;;;;4977810;28;20326;-74
2024/01/27 08:07:11;;;;;;;14.67;4.80;;;4.90;57.40;;;;;;4981123;28;20223;-75
2024/01/27 08:09:42;;;;;;;14.77;4.57;;;4.90;57.10;;;;;;4980815;28;20233;-75
2024/01/27 08:12:11;;;;;;;14.70;4.40;;;4.90;56.40;;;;;;4962775;28;20234;-74
2024/01/27 08:14:39;;;;;;;14.70;4.33;;;4.80;56.40;;;;;;4979437;28;20231;-73
2024/01/27 08:17:08;;;;;;;14.87;4.53;;;4.90;56.90;;;;;;4995988;28;20337;-74
2024/01/27 08:19:37;;;;;;;16.67;5.20;;;4.90;56.60;;;;;;4983058;28;20245;-76
2024/01/27 08:22:06;;;;;;;15.93;4.40;;;5.00;56.50;;;;;;4982660;28;20261;-81
2024/01/27 08:24:34;;;;;;;14.03;4.77;;;5.00;55.70;;;;;;4976904;28;20277;-80
2024/01/27 08:27:05;;;;;;;19.23;5.47;;;4.90;56.00;;;;;;5001900;28;20231;-78
2024/01/27 08:29:34;;;;;;;20.00;10.63;;;4.90;57.20;;;;;;4962312;28;20235;-79
2024/01/27 08:32:02;;;;;;;35.40;21.33;;;5.00;63.60;;;;;;4980943;28;20226;-79
2024/01/27 08:34:31;;;;;;;16.37;5.50;;;5.00;56.40;;;;;;4982314;28;20251;-80
2024/01/27 08:37:02;;;;;;;15.17;4.97;;;4.90;56.10;;;;;;5002548;28;20238;-80
2024/01/27 08:39:31;;;;;;;15.90;5.40;;;4.80;56.30;;;;;;4985946;28;20231;-79
2024/01/27 08:42:00;;;;;;;11.40;4.97;;;4.90;56.30;;;;;;4981978;28;20717;-80
2024/01/27 08:44:31;;;;;;;13.53;5.40;;;5.00;56.40;;;;;;4965538;28;20237;-81
2024/01/27 08:47:00;;;;;;;15.37;4.80;;;4.90;55.90;;;;;;4982516;28;20234;-79
2024/01/27 08:49:31;;;;;;;11.37;4.53;;;5.00;55.80;;;;;;4984259;28;20227;-80
2024/01/27 08:52:00;;;;;;;15.37;4.83;;;5.00;56.40;;;;;;4981324;28;20238;-80
2024/01/27 08:54:29;;;;;;;14.50;5.00;;;5.10;55.90;;;;;;4998979;28;20320;-80
2024/01/27 08:56:58;;;;;;;13.70;5.00;;;5.00;56.50;;;;;;4979896;28;20255;-80
2024/01/27 08:59:27;;;;;;;13.33;4.93;;;5.00;56.50;;;;;;4972303;28;20232;-74
2024/01/27 09:01:57;;;;;;;16.67;5.43;;;5.00;56.50;;;;;;4975819;28;20257;-81
2024/01/27 09:04:28;;;;;;;15.87;6.07;;;5.10;56.60;;;;;;4961435;28;20710;-82
2024/01/27 09:06:56;;;;;;;14.03;5.37;;;5.10;57.00;;;;;;4975083;28;20219;-74
2024/01/27 09:09:26;;;;;;;13.67;5.07;;;5.10;56.50;;;;;;4968840;28;20233;-80
2024/01/27 09:11:55;;;;;;;11.97;4.93;;;5.00;56.20;;;;;;4982537;28;20754;-80
2024/01/27 09:14:24;;;;;;;13.93;5.10;;;5.10;57.50;;;;;;4986077;28;20833;-78
2024/01/27 09:16:53;;;;;;;16.53;7.67;;;5.10;56.30;;;;;;4985732;28;20325;-79
2024/01/27 09:19:23;;;;;;;12.40;5.20;;;5.20;55.80;;;;;;4983117;28;20219;-80
2024/01/27 09:21:52;;;;;;;13.57;4.67;;;5.20;55.90;;;;;;4980250;28;20337;-80
2024/01/27 09:24:21;;;;;;;15.93;5.50;;;5.20;55.70;;;;;;4980040;28;20243;-79
2024/01/27 09:26:49;;;;;;;17.30;5.37;;;5.30;56.30;;;;;;4980183;28;20310;-77
2024/01/27 09:32:16;;;;;;;20.87;10.63;;;5.30;55.40;;;;;;4938528;28;20345;-67
2024/01/27 09:34:47;;;;;;;13.27;4.80;;;5.30;54.30;;;;;;4972689;28;20313;-69
2024/01/27 09:51:58;;;;;;;12.70;4.77;;;5.30;52.20;;;;;;5569672;23;20264;-78
2024/01/27 09:54:27;;;;;;;11.17;4.80;;;5.40;52.60;;;;;;4994414;28;20224;-78
2024/01/27 09:56:57;;;;;;;9.67;4.17;;;5.50;51.40;;;;;;4986655;28;20272;-78
2024/01/27 09:59:27;;;;;;;9.00;4.20;;;5.50;51.20;;;;;;4998665;28;20234;-77
2024/01/27 10:01:57;;;;;;;6.57;3.33;;;5.40;52.50;;;;;;4993768;28;20950;-79
2024/01/27 10:04:28;;;;;;;9.40;3.63;;;5.50;51.30;;;;;;4995358;28;20237;-80
2024/01/27 10:06:59;;;;;;;10.30;3.43;;;5.60;52.50;;;;;;4997496;28;20226;-80
2024/01/27 10:09:28;;;;;;;8.17;3.43;;;5.60;51.30;;;;;;4991211;28;20265;-79
2024/01/27 10:11:58;;;;;;;7.80;3.27;;;5.50;50.70;;;;;;4996065;28;20222;-79
2024/01/27 10:14:27;;;;;;;7.97;3.50;;;5.50;50.80;;;;;;4979062;28;20229;-79
2024/01/27 10:16:58;;;;;;;6.53;2.93;;;5.60;51.50;;;;;;5010244;28;20243;-78
2024/01/27 10:19:28;;;;;;;5.47;2.63;;;5.50;52.00;;;;;;4996570;28;20280;-79
2024/01/27 10:22:03;;;;;;;6.60;2.83;;;5.60;52.00;;;;;;4969949;28;20218;-79
2024/01/27 10:24:33;;;;;;;4.90;2.97;;;5.60;51.40;;;;;;4977989;28;20228;-78
2024/01/27 10:27:03;;;;;;;6.97;2.80;;;5.50;50.60;;;;;;4993001;28;20229;-79
2024/01/27 10:29:32;;;;;;;7.13;2.80;;;5.40;50.70;;;;;;4992612;28;20234;-78
2024/01/27 10:32:10;;;;;;;4.00;2.93;;;5.40;51.90;;;;;;4990977;28;20309;-79
2024/01/27 10:34:39;;;;;;;6.40;2.83;;;5.50;51.80;;;;;;4995854;28;20224;-78
2024/01/27 10:37:12;;;;;;;5.43;2.83;;;5.60;52.00;;;;;;4994335;28;20896;-78
2024/01/27 10:39:42;;;;;;;6.50;2.90;;;5.50;51.00;;;;;;4980147;28;20784;-78
2024/01/27 10:42:11;;;;;;;6.03;2.70;;;5.60;50.50;;;;;;4995395;28;20308;-77
2024/01/27 10:44:42;;;;;;;5.77;3.00;;;5.40;50.30;;;;;;4993998;28;20908;-77
2024/01/27 10:47:18;;;;;;;5.97;2.80;;;5.40;51.20;;;;;;4995181;28;20238;-77
2024/01/27 10:49:49;;;;;;;4.20;2.80;;;5.50;51.40;;;;;;5008705;28;20232;-77
2024/01/27 10:52:22;;;;;;;7.17;3.03;;;5.50;50.50;;;;;;4984497;28;20229;-78
2024/01/27 10:54:54;;;;;;;4.40;2.63;;;5.50;50.40;;;;;;4979875;28;20230;-77
2024/01/27 10:57:25;;;;;;;4.50;2.90;;;5.50;50.80;;;;;;4974256;28;20353;-78
2024/01/27 10:59:55;;;;;;;5.83;2.60;;;5.50;51.10;;;;;;4992108;28;20261;-79
2024/01/27 11:02:24;;;;;;;6.13;2.57;;;5.60;50.40;;;;;;5000895;28;20263;-78
2024/01/27 11:04:54;;;;;;;4.93;2.80;;;5.60;49.90;;;;;;4997664;28;20231;-79
2024/01/27 11:07:26;;;;;;;4.20;3.13;;;5.60;49.70;;;;;;4990485;28;20373;-79
2024/01/27 11:09:55;;;;;;;4.60;2.67;;;5.60;50.40;;;;;;5000737;28;20266;-78
2024/01/27 11:12:27;;;;;;;4.07;2.13;;;5.50;49.70;;;;;;4997648;28;20317;-78
2024/01/27 11:14:58;;;;;;;6.00;2.40;;;5.40;50.00;;;;;;4994650;28;20214;-78
2024/01/27 11:17:27;;;;;;;2.93;2.10;;;5.40;50.20;;;;;;5000306;28;20218;-78
2024/01/27 11:20:00;;;;;;;3.33;2.37;;;5.40;49.90;;;;;;4998548;28;20581;-78
2024/01/27 11:22:32;;;;;;;6.20;3.20;;;5.50;49.80;;;;;;4986696;28;20852;-79
2024/01/27 11:25:08;;;;;;;5.07;2.90;;;5.50;49.60;;;;;;5001906;28;20570;-79
2024/01/27 11:27:37;;;;;;;3.73;2.70;;;5.50;49.10;;;;;;4998300;28;20258;-79
2024/01/27 11:30:12;;;;;;;3.53;2.40;;;5.60;48.80;;;;;;4978527;28;20245;-81
2024/01/27 11:32:42;;;;;;;4.00;2.70;;;5.60;48.90;;;;;;4995507;28;20314;-78
2024/01/27 11:35:11;;;;;;;7.00;4.33;;;5.70;48.50;;;;;;4993760;28;20327;-81
2024/01/27 11:37:41;;;;;;;5.07;2.67;;;5.60;47.40;;;;;;4992294;28;20227;-81
2024/01/27 11:40:15;;;;;;;5.90;2.80;;;5.70;48.80;;;;;;4993018;28;20219;-81
2024/01/27 11:42:44;;;;;;;3.77;2.57;;;5.50;49.00;;;;;;4997807;28;20281;-80
2024/01/27 11:45:14;;;;;;;4.93;2.90;;;5.60;49.00;;;;;;4996779;28;20237;-78
2024/01/27 11:47:44;;;;;;;4.43;2.70;;;5.50;48.20;;;;;;4995892;28;20229;-79
2024/01/27 11:50:13;;;;;;;3.43;2.83;;;5.50;47.80;;;;;;4981626;28;20222;-78
2024/01/27 11:52:43;;;;;;;3.83;3.00;;;5.60;49.00;;;;;;5000395;28;20250;-81
2024/01/27 11:55:12;;;;;;;4.97;3.03;;;5.60;47.70;;;;;;4999470;28;20753;-79
2024/01/27 11:57:40;;;;;;;4.30;2.97;;;5.70;47.70;;;;;;5015812;28;20539;-78
2024/01/27 12:00:10;;;;;;;4.53;3.17;;;5.60;47.40;;;;;;4978246;28;20234;-79
2024/01/27 12:02:39;;;;;;;3.93;2.90;;;5.60;46.70;;;;;;5000830;28;20291;-80
2024/01/27 12:05:10;;;;;;;2.77;2.33;;;5.60;47.50;;;;;;4981160;28;20350;-79
2024/01/27 12:07:40;;;;;;;5.63;2.90;;;5.60;47.80;;;;;;5000443;28;20228;-77
2024/01/27 12:10:11;;;;;;;3.27;2.53;;;5.60;47.30;;;;;;4986206;28;20336;-77
2024/01/27 12:12:40;;;;;;;3.90;2.80;;;5.60;47.30;;;;;;4981674;28;20839;-78
2024/01/27 12:15:09;;;;;;;3.23;2.53;;;5.50;47.10;;;;;;5002607;28;20678;-78
2024/01/27 12:17:38;;;;;;;2.90;2.50;;;5.40;47.10;;;;;;4987840;28;20593;-77
2024/01/27 12:20:16;;;;;;;3.20;2.43;;;5.50;46.60;;;;;;5001963;28;20218;-78
2024/01/27 12:22:45;;;;;;;5.63;2.57;;;5.60;47.30;;;;;;4997906;28;20254;-78
2024/01/27 12:25:17;;;;;;;3.60;2.80;;;5.60;47.30;;;;;;5001838;28;20245;-78
2024/01/27 12:27:46;;;;;;;3.13;2.60;;;5.50;47.20;;;;;;4983717;28;20929;-79
2024/01/27 12:30:15;;;;;;;3.30;2.70;;;5.50;47.60;;;;;;5002187;28;20320;-78
2024/01/27 12:32:44;;;;;;;3.93;2.83;;;5.60;47.90;;;;;;5002919;28;20319;-77
2024/01/27 12:35:14;;;;;;;5.53;3.10;;;5.50;47.90;;;;;;4998884;28;20250;-78
2024/01/27 12:37:45;;;;;;;3.87;2.97;;;5.40;47.40;;;;;;4994423;28;20215;-79
2024/01/27 12:40:22;;;;;;;4.63;3.33;;;5.50;49.00;;;;;;4986601;28;20234;-78
2024/01/27 12:42:52;;;;;;;4.00;3.13;;;5.50;47.20;;;;;;5000630;28;20330;-78
2024/01/27 12:45:21;;;;;;;6.67;3.30;;;5.60;47.30;;;;;;4999427;28;20793;-79
2024/01/27 12:47:50;;;;;;;4.87;3.37;;;5.50;47.10;;;;;;4979234;28;20237;-79
2024/01/27 12:50:19;;;;;;;4.50;3.60;;;5.60;48.00;;;;;;4999946;28;20231;-79
2024/01/27 12:52:49;;;;;;;3.53;2.90;;;5.50;47.70;;;;;;5000155;28;20222;-78
2024/01/27 12:55:18;;;;;;;3.77;3.33;;;5.50;58.50;;;;;;4995059;28;20332;-78
2024/01/27 12:57:48;;;;;;;4.00;3.50;;;5.50;47.90;;;;;;4994913;28;20243;-80
2024/01/27 13:00:19;;;;;;;3.97;3.57;;;5.50;49.50;;;;;;4968068;28;20262;-79
2024/01/27 13:02:47;;;;;;;4.87;3.83;;;5.50;46.70;;;;;;4988928;28;20812;-78
2024/01/27 13:05:16;;;;;;;7.10;5.40;;;5.60;47.20;;;;;;4987946;28;20420;-78
2024/01/27 13:07:46;;;;;;;20.47;14.60;;;5.60;46.10;;;;;;5001548;28;20246;-79
2024/01/27 13:10:14;;;;;;;9.17;6.73;;;5.70;48.10;;;;;;4997611;28;20232;-78
2024/01/27 13:12:44;;;;;;;6.83;3.83;;;5.80;46.80;;;;;;4999548;28;20803;-78
2024/01/27 13:15:15;;;;;;;3.70;3.27;;;5.70;47.00;;;;;;4999721;28;20254;-80
2024/01/27 13:17:44;;;;;;;5.10;3.87;;;5.70;46.30;;;;;;5000654;28;20500;-79
2024/01/27 13:20:13;;;;;;;5.13;3.63;;;5.80;47.10;;;;;;4999338;28;20226;-77